Time;durP1;ratioP1;P1;durP2;ratioP2;P2;SDS_P1;SDS_P2;PMS_P1;PMS_P2;Temp;Humidity;BMP_temperature;BMP_pressure;BME280_temperature;BME280_humidity;BME280_pressure;Samples;Min_cycle;Max_cycle;Signal;HPM_P1;HPM_P2
2022/05/08 00:01:47;;;;;;;;;;;;;;;21.02;68.88;97435.61;627021;226;63576;-75
2022/05/08 00:04:15;;;;;;;;;;;;;;;21.00;67.66;97437.73;627002;226;64938;-75
2022/05/08 00:06:42;;;;;;;;;;;;;;;21.01;68.02;97433.22;627024;226;65440;-75
2022/05/08 00:09:10;;;;;;;;;;;;;;;21.00;67.52;97432.39;627083;226;63230;-75
2022/05/08 00:11:37;;;;;;;;;;;;;;;21.00;67.74;97426.25;627060;226;62699;-75
2022/05/08 00:14:05;;;;;;;;;;;;;;;20.99;67.97;97414.77;627022;226;63011;-75
2022/05/08 00:16:32;;;;;;;;;;;;;;;20.98;67.39;97420.36;627033;226;63725;-75
2022/05/08 00:19:00;;;;;;;;;;;;;;;21.00;67.02;97426.25;627038;226;64972;-75
2022/05/08 00:21:27;;;;;;;;;;;;;;;20.99;67.43;97424.66;627024;226;63037;-75
2022/05/08 00:23:55;;;;;;;;;;;;;;;20.99;66.30;97422.78;627101;226;62917;-75
2022/05/08 00:26:22;;;;;;;;;;;;;;;20.99;68.59;97422.78;627035;226;62761;-75
2022/05/08 00:28:50;;;;;;;;;;;;;;;20.97;66.47;97416.88;627027;226;62845;-75
2022/05/08 00:31:18;;;;;;;;;;;;;;;21.00;66.77;97421.70;627030;226;64999;-75
2022/05/08 00:33:45;;;;;;;;;;;;;;;20.99;66.04;97425.45;627030;226;62991;-75
2022/05/08 00:36:13;;;;;;;;;;;;;;;20.98;67.77;97421.19;627083;226;63260;-75
2022/05/08 00:38:40;;;;;;;;;;;;;;;20.96;66.91;97417.96;627028;226;62917;-75
2022/05/08 00:41:08;;;;;;;;;;;;;;;20.96;65.88;97420.63;626996;226;63041;-75
2022/05/08 00:43:42;;;;;;;;;;;;;;;20.98;67.70;97429.20;624936;226;62850;-76
2022/05/08 00:46:13;;;;;;;;;;;;;;;20.99;66.82;97422.78;624745;227;65033;-76
2022/05/08 00:48:42;;;;;;;;;;;;;;;20.97;67.00;97416.88;624819;226;42497;-76
2022/05/08 00:51:11;;;;;;;;;;;;;;;20.97;66.17;97422.23;624768;227;63135;-76
2022/05/08 00:53:40;;;;;;;;;;;;;;;20.97;66.61;97427.57;624763;227;65024;-76
2022/05/08 00:56:08;;;;;;;;;;;;;;;20.96;67.65;97417.96;624769;227;65028;-76
2022/05/08 00:58:36;;;;;;;;;;;;;;;20.96;66.87;97417.96;624710;227;63090;-77
2022/05/08 01:01:04;;;;;;;;;;;;;;;20.95;67.13;97416.36;624742;227;65050;-77
2022/05/08 01:03:32;;;;;;;;;;;;;;;20.95;66.35;97416.36;624813;227;65285;-76
2022/05/08 01:06:01;;;;;;;;;;;;;;;20.95;67.23;97418.20;624747;227;65474;-77
2022/05/08 01:08:29;;;;;;;;;;;;;;;20.94;67.99;97412.06;624715;226;62976;-77
2022/05/08 01:10:56;;;;;;;;;;;;;;;20.96;66.68;97411.82;624736;227;64959;-76
2022/05/08 01:13:24;;;;;;;;;;;;;;;20.94;67.93;97416.61;624759;227;62997;-77
2022/05/08 01:15:54;;;;;;;;;;;;;;;20.93;67.86;97413.14;624841;227;62670;-76
2022/05/08 01:18:20;;;;;;;;;;;;;;;20.93;66.07;97421.16;624732;226;62891;-77
2022/05/08 01:20:48;;;;;;;;;;;;;;;20.92;67.24;97419.53;624741;227;63023;-77
2022/05/08 01:23:16;;;;;;;;;;;;;;;20.92;67.48;97422.20;624731;227;63214;-76
2022/05/08 01:25:47;;;;;;;;;;;;;;;20.92;68.21;97421.41;624749;227;65523;-72
2022/05/08 01:28:15;;;;;;;;;;;;;;;20.91;67.20;97417.13;624760;227;62993;-72
2022/05/08 01:30:43;;;;;;;;;;;;;;;20.93;65.83;97415.02;624783;227;63761;-72
2022/05/08 01:33:11;;;;;;;;;;;;;;;20.92;66.95;97408.84;624761;227;63209;-72
2022/05/08 01:35:39;;;;;;;;;;;;;;;20.93;66.12;97415.81;624738;227;63070;-72
2022/05/08 01:38:07;;;;;;;;;;;;;;;20.93;66.29;97410.47;624769;227;62622;-72
2022/05/08 01:40:35;;;;;;;;;;;;;;;20.92;65.47;97414.19;624822;227;64051;-72
2022/05/08 01:43:03;;;;;;;;;;;;;;;20.93;65.58;97412.34;626211;226;64917;-72
2022/05/08 01:45:31;;;;;;;;;;;;;;;20.93;67.66;97415.81;627048;226;63791;-72
2022/05/08 01:50:45;;;;;;;;;;;;;;;20.93;65.98;97415.81;627033;226;63303;-73
2022/05/08 01:53:12;;;;;;;;;;;;;;;20.93;65.80;97415.81;627026;226;62870;-72
2022/05/08 01:55:40;;;;;;;;;;;;;;;20.92;66.01;97422.20;627068;226;63909;-73
2022/05/08 01:58:08;;;;;;;;;;;;;;;20.92;67.10;97419.53;627000;226;65329;-70
2022/05/08 02:00:35;;;;;;;;;;;;;;;20.91;66.11;97420.61;627051;226;62941;-70
2022/05/08 02:03:05;;;;;;;;;;;;;;;20.90;66.57;97421.69;626962;226;65441;-70
2022/05/08 02:05:33;;;;;;;;;;;;;;;20.90;67.62;97416.34;627056;226;65454;-70
2022/05/08 02:08:01;;;;;;;;;;;;;;;20.89;66.95;97422.73;627047;226;62912;-70
2022/05/08 02:10:28;;;;;;;;;;;;;;;20.90;67.65;97410.99;627012;226;63099;-70
2022/05/08 02:12:56;;;;;;;;;;;;;;;20.89;66.06;97409.37;627001;226;63207;-70
2022/05/08 02:15:29;;;;;;;;;;;;;;;20.89;65.46;97414.71;626973;226;65749;-72
2022/05/08 02:17:54;;;;;;;;;;;;;;;20.89;67.64;97413.91;626951;225;65642;-77
2022/05/08 02:20:21;;;;;;;;;;;;;;;20.88;66.52;97415.79;627049;226;65537;-77
2022/05/08 02:22:49;;;;;;;;;;;;;;;20.88;67.55;97418.45;627030;226;65967;-77
2022/05/08 02:25:16;;;;;;;;;;;;;;;20.89;68.27;97420.05;627011;226;62933;-77
2022/05/08 02:27:49;;;;;;;;;;;;;;;20.87;68.07;97416.86;626973;226;64076;-77
2022/05/08 02:30:13;;;;;;;;;;;;;;;20.88;66.47;97415.79;626896;225;64927;-77
2022/05/08 02:32:40;;;;;;;;;;;;;;;20.88;66.06;97414.98;627048;226;65329;-77
2022/05/08 02:35:09;;;;;;;;;;;;;;;20.87;65.46;97411.52;627041;226;65431;-77
2022/05/08 02:37:39;;;;;;;;;;;;;;;20.88;67.80;97407.77;626998;226;65646;-77
2022/05/08 02:40:08;;;;;;;;;;;;;;;20.87;65.76;97416.03;626798;225;63010;-77
2022/05/08 02:42:36;;;;;;;;;;;;;;;20.87;67.31;97416.86;625844;226;63035;-77
2022/05/08 02:45:04;;;;;;;;;;;;;;;20.87;66.47;97419.53;624789;227;62818;-77
2022/05/08 02:47:35;;;;;;;;;;;;;;;20.88;67.08;97417.66;624770;227;65509;-75
2022/05/08 02:50:04;;;;;;;;;;;;;;;20.88;66.43;97414.98;624737;227;63021;-76
2022/05/08 02:52:31;;;;;;;;;;;;;;;20.84;65.92;97415.52;624745;227;64789;-75
2022/05/08 02:58:32;;;;;;;;;;;;;;;20.87;67.69;97421.38;624785;227;65247;-76
2022/05/08 03:00:17;;;;;;;;;;;;;;;20.85;66.47;97418.98;624839;227;64880;-76
2022/05/08 03:02:44;;;;;;;;;;;;;;;20.85;67.48;97418.98;624735;227;63032;-75
2022/05/08 03:05:12;;;;;;;;;;;;;;;20.86;66.25;97430.47;624738;227;63019;-76
2022/05/08 03:07:40;;;;;;;;;;;;;;;20.83;67.29;97423.77;624739;227;64891;-75
2022/05/08 03:10:11;;;;;;;;;;;;;;;20.83;66.65;97431.78;624754;227;66108;-76
2022/05/08 03:12:37;;;;;;;;;;;;;;;20.83;67.98;97426.44;624763;227;65162;-77
2022/05/08 03:15:05;;;;;;;;;;;;;;;20.84;67.14;97430.71;624821;227;64787;-77
2022/05/08 03:17:33;;;;;;;;;;;;;;;20.83;66.95;97429.11;624739;227;65122;-77
2022/05/08 03:20:00;;;;;;;;;;;;;;;20.83;65.08;97434.45;624718;227;65539;-77
2022/05/08 03:22:28;;;;;;;;;;;;;;;20.81;67.31;97426.69;624757;225;64903;-77
2022/05/08 03:24:55;;;;;;;;;;;;;;;20.84;67.99;97433.38;624732;227;65316;-77
2022/05/08 03:27:23;;;;;;;;;;;;;;;20.83;66.68;97434.45;624772;227;65498;-77
2022/05/08 03:29:50;;;;;;;;;;;;;;;20.82;66.49;97435.53;624718;227;65010;-77
2022/05/08 03:32:18;;;;;;;;;;;;;;;20.81;67.76;97439.25;624722;227;65117;-77
2022/05/08 03:34:45;;;;;;;;;;;;;;;20.83;67.26;97442.47;624699;227;66725;-77
2022/05/08 03:37:13;;;;;;;;;;;;;;;20.83;66.14;97445.14;624744;227;65182;-77
2022/05/08 03:39:40;;;;;;;;;;;;;;;20.84;65.91;97444.89;624774;227;65360;-77
2022/05/08 03:42:08;;;;;;;;;;;;;;;20.83;65.05;97442.47;624666;227;65355;-77
2022/05/08 03:44:37;;;;;;;;;;;;;;;20.83;65.46;97442.47;624784;227;64773;-77
2022/05/08 03:47:04;;;;;;;;;;;;;;;20.82;66.58;97441.67;624688;227;63040;-77
2022/05/08 03:49:33;;;;;;;;;;;;;;;20.83;65.15;97442.47;624731;227;66009;-77
2022/05/08 03:52:01;;;;;;;;;;;;;;;20.83;65.73;97448.61;624737;227;65566;-77
2022/05/08 03:54:28;;;;;;;;;;;;;;;20.83;66.37;97447.81;624735;227;63855;-77
2022/05/08 03:56:56;;;;;;;;;;;;;;;20.82;65.45;97449.69;624761;227;65437;-77
2022/05/08 03:59:23;;;;;;;;;;;;;;;20.82;65.95;97451.56;624706;227;64971;-77
2022/05/08 04:01:54;;;;;;;;;;;;;;;20.82;66.34;97451.56;624735;227;65917;-77
2022/05/08 04:04:22;;;;;;;;;;;;;;;20.82;66.04;97448.89;624738;227;65532;-77
2022/05/08 04:06:49;;;;;;;;;;;;;;;20.81;66.76;97456.07;624781;227;62910;-77
2022/05/08 04:09:17;;;;;;;;;;;;;;;20.80;65.07;97451.80;624717;227;62922;-77
2022/05/08 04:11:44;;;;;;;;;;;;;;;20.80;65.54;97453.67;624743;227;62706;-77
2022/05/08 04:14:12;;;;;;;;;;;;;;;20.81;67.41;97460.62;624694;227;62942;-77
2022/05/08 04:16:40;;;;;;;;;;;;;;;20.80;65.98;97459.02;624695;227;65119;-77
2022/05/08 04:19:07;;;;;;;;;;;;;;;20.81;66.78;97453.41;624758;227;65678;-77
2022/05/08 04:21:35;;;;;;;;;;;;;;;20.80;66.09;97453.67;624742;227;65265;-77
2022/05/08 04:24:17;;;;;;;;;;;;;;;20.79;65.30;97462.77;624726;227;65368;-77
2022/05/08 04:26:45;;;;;;;;;;;;;;;20.79;66.34;97455.55;624716;227;65303;-76
2022/05/08 04:29:13;;;;;;;;;;;;;;;20.80;66.63;97459.81;624741;227;63858;-76
2022/05/08 04:31:40;;;;;;;;;;;;;;;20.80;65.97;97464.36;624765;227;64931;-76
2022/05/08 04:34:08;;;;;;;;;;;;;;;20.78;67.93;97466.48;624771;227;65433;-76
2022/05/08 04:36:35;;;;;;;;;;;;;;;20.77;67.27;97468.35;624737;227;65204;-76
2022/05/08 04:39:03;;;;;;;;;;;;;;;20.77;66.61;97464.88;624709;227;63034;-76
2022/05/08 04:41:30;;;;;;;;;;;;;;;20.76;67.31;97472.09;624631;226;63281;-75
2022/05/08 04:44:00;;;;;;;;;;;;;;;20.77;67.26;97470.22;624723;227;65017;-76
2022/05/08 04:46:29;;;;;;;;;;;;;;;20.76;67.20;97465.92;624835;226;49293;-76
2022/05/08 04:48:57;;;;;;;;;;;;;;;20.75;67.83;97459.78;624712;227;65956;-76
2022/05/08 04:51:25;;;;;;;;;;;;;;;20.75;67.80;97462.45;624752;227;65654;-76
2022/05/08 04:53:53;;;;;;;;;;;;;;;20.76;68.03;97465.92;624743;227;65498;-76
2022/05/08 04:56:21;;;;;;;;;;;;;;;20.75;68.00;97461.66;624721;227;65657;-76
2022/05/08 04:58:49;;;;;;;;;;;;;;;20.75;67.47;97454.44;624827;227;62708;-76
2022/05/08 05:01:16;;;;;;;;;;;;;;;20.75;66.50;97464.33;624716;227;63005;-76
2022/05/08 05:03:44;;;;;;;;;;;;;;;20.75;67.12;97453.64;624772;227;63025;-76
2022/05/08 05:06:11;;;;;;;;;;;;;;;20.73;65.80;97447.75;624726;227;63332;-76
2022/05/08 05:08:39;;;;;;;;;;;;;;;20.74;67.01;97444.83;624756;227;63060;-76
2022/05/08 05:11:08;;;;;;;;;;;;;;;20.74;67.58;97455.52;624793;227;65969;-76
2022/05/08 05:13:36;;;;;;;;;;;;;;;20.73;67.98;97450.42;624746;227;63287;-76
2022/05/08 05:16:04;;;;;;;;;;;;;;;20.75;67.34;97453.64;624750;227;62979;-76
2022/05/08 05:18:32;;;;;;;;;;;;;;;20.74;68.32;97457.39;624752;227;65545;-76
2022/05/08 05:21:00;;;;;;;;;;;;;;;20.73;66.40;97453.89;624713;227;65229;-70
2022/05/08 05:23:27;;;;;;;;;;;;;;;20.74;67.55;97452.05;624833;227;65101;-76
2022/05/08 05:25:55;;;;;;;;;;;;;;;20.74;68.35;97454.72;624742;227;64922;-76
2022/05/08 05:28:23;;;;;;;;;;;;;;;20.73;67.59;97450.42;624759;227;62941;-76
2022/05/08 05:30:50;;;;;;;;;;;;;;;20.72;67.20;97452.30;624728;227;63080;-76
2022/05/08 05:33:20;;;;;;;;;;;;;;;20.73;68.53;97453.89;624714;227;63231;-76
2022/05/08 05:35:47;;;;;;;;;;;;;;;20.73;69.14;97453.09;624760;227;62948;-76
2022/05/08 05:38:15;;;;;;;;;;;;;;;20.72;67.29;97446.95;624798;225;63954;-76
2022/05/08 05:40:42;;;;;;;;;;;;;;;20.72;67.55;97448.83;624759;227;65484;-76
2022/05/08 05:43:10;;;;;;;;;;;;;;;20.71;67.52;97447.23;626342;226;64955;-76
2022/05/08 05:45:37;;;;;;;;;;;;;;;20.72;68.11;97452.30;627043;226;62964;-76
2022/05/08 05:48:05;;;;;;;;;;;;;;;20.71;68.26;97441.88;626958;226;63013;-76
2022/05/08 05:50:33;;;;;;;;;;;;;;;20.71;68.10;97444.55;627070;226;65061;-76
2022/05/08 05:53:01;;;;;;;;;;;;;;;20.72;69.06;97446.16;627012;226;65099;-76
2022/05/08 05:55:29;;;;;;;;;;;;;;;20.71;68.38;97441.88;626999;226;65436;-76
2022/05/08 05:57:57;;;;;;;;;;;;;;;20.69;67.46;97446.67;627006;226;65665;-76
2022/05/08 06:00:24;;;;;;;;;;;;;;;20.70;68.69;97440.25;626978;226;65130;-76
2022/05/08 06:02:51;;;;;;;;;;;;;;;20.69;69.03;97435.98;627045;226;65525;-76
2022/05/08 06:05:18;;;;;;;;;;;;;;;20.69;67.73;97438.66;627023;226;65016;-76
2022/05/08 06:07:46;;;;;;;;;;;;;;;20.70;68.35;97437.59;627031;226;65533;-76
2022/05/08 06:10:14;;;;;;;;;;;;;;;20.69;68.92;97435.98;626995;226;65578;-76
2022/05/08 06:12:42;;;;;;;;;;;;;;;20.68;69.26;97439.70;627044;226;65404;-76
2022/05/08 06:15:10;;;;;;;;;;;;;;;20.69;68.62;97441.33;627030;226;65632;-76
2022/05/08 06:17:38;;;;;;;;;;;;;;;20.70;68.75;97442.93;627006;226;63981;-76
2022/05/08 06:20:06;;;;;;;;;;;;;;;20.70;68.25;97440.25;627015;226;63203;-76
2022/05/08 06:22:35;;;;;;;;;;;;;;;20.69;68.23;97431.45;627062;225;46506;-76
2022/05/08 06:25:04;;;;;;;;;;;;;;;20.72;67.23;97432.80;627039;226;65306;-71
2022/05/08 06:27:31;;;;;;;;;;;;;;;20.72;66.43;97438.14;627030;226;65017;-70
2022/05/08 06:30:03;;;;;;;;;;;;;;;20.73;65.96;97434.39;626998;226;65082;-71
2022/05/08 06:32:28;;;;;;;;;;;;;;;20.73;65.65;97437.06;626901;225;65264;-71
2022/05/08 06:34:55;;;;;;;;;;;;;;;20.75;66.03;97434.95;627020;226;65296;-71
2022/05/08 06:37:23;;;;;;;;;;;;;;;20.74;65.89;97428.01;627036;226;65236;-71
2022/05/08 06:39:51;;;;;;;;;;;;;;;20.76;67.06;97431.20;627001;226;64988;-71
2022/05/08 06:42:18;;;;;;;;;;;;;;;20.76;67.58;97434.70;626146;226;65013;-71
2022/05/08 06:44:48;;;;;;;;;;;;;;;20.76;67.13;97433.88;624714;225;42446;-70
2022/05/08 06:47:15;;;;;;;;;;;;;;;20.76;67.27;97434.70;624726;227;65737;-70
2022/05/08 06:49:43;;;;;;;;;;;;;;;20.75;68.27;97429.61;624757;227;65035;-71
2022/05/08 06:52:11;;;;;;;;;;;;;;;20.76;67.46;97429.36;624734;227;65931;-71
2022/05/08 06:54:39;;;;;;;;;;;;;;;20.76;67.10;97431.20;624765;227;62846;-71
2022/05/08 06:57:06;;;;;;;;;;;;;;;20.76;66.94;97434.70;624775;227;62911;-71
2022/05/08 07:02:19;;;;;;;;;;;;;;;20.76;65.91;97433.88;624798;227;65036;-72
2022/05/08 07:04:47;;;;;;;;;;;;;;;20.77;67.47;97427.48;624761;227;62825;-70
2022/05/08 07:07:14;;;;;;;;;;;;;;;20.76;66.62;97421.34;624708;227;62958;-70
2022/05/08 07:09:43;;;;;;;;;;;;;;;20.76;66.76;97421.34;624787;227;65439;-72
2022/05/08 07:12:11;;;;;;;;;;;;;;;20.77;66.40;97424.81;624739;227;65524;-72
2022/05/08 07:14:42;;;;;;;;;;;;;;;20.76;66.11;97426.69;624787;227;65356;-72
2022/05/08 07:17:10;;;;;;;;;;;;;;;20.76;68.39;97421.34;624743;227;62323;-72
2022/05/08 07:19:38;;;;;;;;;;;;;;;20.78;67.41;97434.42;624766;227;64745;-72
2022/05/08 07:22:06;;;;;;;;;;;;;;;20.77;67.08;97425.61;624795;227;62995;-72
2022/05/08 07:24:33;;;;;;;;;;;;;;;20.76;66.40;97421.34;624733;227;62806;-72
2022/05/08 07:27:01;;;;;;;;;;;;;;;20.78;67.51;97431.76;624786;227;62254;-73
2022/05/08 07:29:28;;;;;;;;;;;;;;;20.76;67.06;97424.02;624743;227;63135;-73
2022/05/08 07:31:57;;;;;;;;;;;;;;;20.77;67.75;97427.48;624697;227;63084;-70
2022/05/08 07:37:10;;;;;;;;;;;;;;;20.77;66.98;97428.28;624785;227;65473;-72
2022/05/08 07:39:38;;;;;;;;;;;;;;;20.77;65.81;97427.48;624737;227;65482;-73
2022/05/08 07:42:05;;;;;;;;;;;;;;;20.77;67.52;97428.28;624694;226;64995;-76
2022/05/08 07:44:33;;;;;;;;;;;;;;;20.77;67.82;97424.81;624737;227;65408;-72
2022/05/08 07:47:00;;;;;;;;;;;;;;;20.77;67.10;97425.61;624722;227;65483;-73
2022/05/08 07:49:28;;;;;;;;;;;;;;;20.77;66.79;97428.28;624784;227;64993;-70
2022/05/08 07:51:56;;;;;;;;;;;;;;;20.77;67.33;97422.95;624740;227;65184;-73
2022/05/08 07:54:23;;;;;;;;;;;;;;;20.77;66.36;97427.48;624753;227;65031;-70
2022/05/08 07:56:51;;;;;;;;;;;;;;;20.77;67.41;97436.30;624729;227;64779;-70
2022/05/08 07:59:18;;;;;;;;;;;;;;;20.77;66.88;97427.48;624691;227;65346;-72
2022/05/08 08:01:46;;;;;;;;;;;;;;;20.77;67.41;97422.95;624787;227;63242;-72
2022/05/08 08:04:13;;;;;;;;;;;;;;;20.78;66.42;97423.74;624729;227;62953;-70
2022/05/08 08:06:41;;;;;;;;;;;;;;;20.77;66.47;97424.81;624742;227;63616;-72
2022/05/08 08:09:10;;;;;;;;;;;;;;;20.78;67.16;97426.41;624674;227;65432;-73
2022/05/08 08:11:38;;;;;;;;;;;;;;;20.77;66.16;97430.16;624683;227;65027;-72
2022/05/08 08:14:06;;;;;;;;;;;;;;;20.77;66.18;97427.48;624768;227;65378;-73
2022/05/08 08:16:33;;;;;;;;;;;;;;;20.77;65.51;97432.83;624749;227;65417;-70
2022/05/08 08:19:01;;;;;;;;;;;;;;;20.77;67.67;97428.28;624751;227;65318;-70
2022/05/08 08:21:28;;;;;;;;;;;;;;;20.77;67.47;97432.83;624724;227;65430;-70
2022/05/08 08:23:56;;;;;;;;;;;;;;;20.78;66.51;97437.90;624693;227;65431;-70
2022/05/08 08:26:23;;;;;;;;;;;;;;;20.78;66.42;97429.08;624786;227;65021;-70
2022/05/08 08:28:51;;;;;;;;;;;;;;;20.78;67.15;97435.22;624758;227;65372;-72
2022/05/08 08:31:18;;;;;;;;;;;;;;;20.76;67.16;97426.69;624740;227;65524;-72
2022/05/08 08:33:46;;;;;;;;;;;;;;;20.77;67.80;97432.83;624739;227;65111;-72
2022/05/08 08:36:13;;;;;;;;;;;;;;;20.76;66.04;97431.20;624794;227;65390;-72
2022/05/08 08:38:41;;;;;;;;;;;;;;;20.77;66.46;97432.83;624797;227;65010;-70
2022/05/08 08:41:09;;;;;;;;;;;;;;;20.77;66.45;97430.16;624765;227;63554;-70
2022/05/08 08:49:24;;;;;;;;;;;;;;;20.77;66.47;97432.83;624716;227;65598;-72
2022/05/08 08:51:52;;;;;;;;;;;;;;;20.76;65.45;97441.89;624743;227;65350;-71
2022/05/08 08:54:20;;;;;;;;;;;;;;;20.75;65.17;97434.95;624755;227;65505;-72
2022/05/08 08:56:48;;;;;;;;;;;;;;;20.75;65.54;97434.95;624805;227;65032;-71
2022/05/08 08:59:15;;;;;;;;;;;;;;;20.74;65.90;97428.01;624756;227;65076;-71
2022/05/08 09:01:43;;;;;;;;;;;;;;;20.74;66.28;97426.14;624708;227;65443;-71
2022/05/08 09:04:12;;;;;;;;;;;;;;;20.72;65.96;97422.91;624776;227;65069;-72
2022/05/08 09:06:43;;;;;;;;;;;;;;;20.74;65.79;97422.67;624784;227;65285;-71
2022/05/08 09:09:23;;;;;;;;;;;;;;;20.74;66.74;97433.35;624815;227;65285;-71
2022/05/08 09:11:53;;;;;;;;;;;;;;;20.73;67.19;97429.85;624780;227;68977;-71
2022/05/08 09:14:28;;;;;;;;;;;;;;;20.73;65.89;97424.51;624712;227;65502;-71
2022/05/08 09:16:55;;;;;;;;;;;;;;;20.73;66.27;97432.52;624768;227;63397;-71
2022/05/08 09:19:37;;;;;;;;;;;;;;;20.74;65.72;97425.34;624740;227;65664;-71
2022/05/08 09:22:05;;;;;;;;;;;;;;;20.74;66.59;97417.33;624673;226;67909;-71
2022/05/08 09:24:34;;;;;;;;;;;;;;;20.72;66.13;97414.91;624792;227;65424;-71
2022/05/08 09:27:14;;;;;;;;;;;;;;;20.73;65.99;97415.70;624754;227;62944;-71
2022/05/08 09:29:42;;;;;;;;;;;;;;;20.74;66.08;97420.00;624735;227;65295;-71
2022/05/08 09:32:10;;;;;;;;;;;;;;;20.73;66.54;97416.50;624778;227;63135;-71
2022/05/08 09:34:57;;;;;;;;;;;;;;;20.73;66.00;97418.37;624743;227;62984;-71
2022/05/08 09:37:25;;;;;;;;;;;;;;;20.73;66.06;97416.50;624775;227;65069;-71
2022/05/08 09:39:55;;;;;;;;;;;;;;;20.73;66.01;97415.70;624767;226;42781;-71
2022/05/08 09:42:36;;;;;;;;;;;;;;;20.74;66.23;97411.98;625245;225;62943;-72
2022/05/08 09:45:07;;;;;;;;;;;;;;;20.72;65.31;97411.44;627022;226;65129;-71
2022/05/08 09:47:41;;;;;;;;;;;;;;;20.72;66.04;97414.91;627062;225;43794;-71
2022/05/08 09:50:10;;;;;;;;;;;;;;;20.72;66.00;97409.56;627017;226;65023;-71
2022/05/08 09:52:40;;;;;;;;;;;;;;;20.74;66.04;97417.33;626980;226;65153;-71
2022/05/08 09:55:12;;;;;;;;;;;;;;;20.73;65.53;97407.69;627021;226;65745;-71
2022/05/08 09:57:39;;;;;;;;;;;;;;;20.73;65.96;97405.02;627095;226;64983;-71
2022/05/08 10:00:08;;;;;;;;;;;;;;;20.73;66.37;97405.02;626990;226;65136;-71
2022/05/08 10:02:43;;;;;;;;;;;;;;;20.74;65.62;97398.62;627004;225;42812;-71
2022/05/08 10:05:11;;;;;;;;;;;;;;;20.74;66.81;97401.30;626985;226;65511;-71
2022/05/08 10:07:39;;;;;;;;;;;;;;;20.73;66.15;97394.33;627018;226;65097;-76
2022/05/08 10:15:48;;;;;;;;;;;;;;;20.73;67.45;97392.46;627025;226;65370;-76
2022/05/08 10:18:28;;;;;;;;;;;;;;;20.72;66.60;97387.39;627039;225;46660;-76
2022/05/08 10:21:04;;;;;;;;;;;;;;;20.71;66.36;97375.91;626911;225;46148;-76
2022/05/08 10:23:36;;;;;;;;;;;;;;;20.71;66.62;97389.27;627042;226;65645;-76
2022/05/08 10:26:20;;;;;;;;;;;;;;;20.71;65.72;97381.26;627042;226;62913;-76
2022/05/08 10:29:04;;;;;;;;;;;;;;;20.71;66.41;97381.26;627004;226;65259;-76
2022/05/08 10:31:48;;;;;;;;;;;;;;;20.72;67.05;97376.71;627044;226;65306;-77
2022/05/08 10:34:11;;;;;;;;;;;;;;;20.71;66.37;97378.58;626921;225;65897;-77
2022/05/08 10:36:41;;;;;;;;;;;;;;;20.71;66.83;97375.12;626949;225;65410;-77
2022/05/08 10:39:28;;;;;;;;;;;;;;;20.70;66.06;97368.95;626919;226;65143;-75
2022/05/08 10:41:56;;;;;;;;;;;;;;;20.70;65.64;97371.62;614207;230;63208;-75
2022/05/08 10:44:37;;;;;;;;;;;;;;;20.70;66.20;97366.27;611527;232;65217;-75
2022/05/08 10:47:22;;;;;;;;;;;;;;;20.71;66.60;97365.23;618436;225;65860;-77
2022/05/08 10:49:50;;;;;;;;;;;;;;;20.72;66.54;97363.36;627493;226;65462;-77
2022/05/08 10:52:17;;;;;;;;;;;;;;;20.71;66.77;97361.77;627437;226;65221;-77
2022/05/08 10:54:57;;;;;;;;;;;;;;;20.71;66.83;97361.77;627409;226;65478;-77
2022/05/08 10:57:35;;;;;;;;;;;;;;;20.70;66.62;97354.80;627415;226;63922;-77
2022/05/08 11:00:06;;;;;;;;;;;;;;;20.71;66.30;97348.41;627418;226;65183;-77
2022/05/08 11:02:44;;;;;;;;;;;;;;;20.70;65.81;97347.58;627420;225;46422;-76
2022/05/08 11:05:10;;;;;;;;;;;;;;;20.71;67.39;97351.08;627199;225;63051;-76
2022/05/08 11:07:41;;;;;;;;;;;;;;;20.70;66.16;97349.45;627462;226;65242;-76
2022/05/08 11:10:16;;;;;;;;;;;;;;;20.71;66.30;97343.86;627388;226;65447;-76
2022/05/08 11:12:59;;;;;;;;;;;;;;;20.71;66.34;97343.07;627351;225;65544;-76
2022/05/08 11:15:27;;;;;;;;;;;;;;;20.71;67.27;97338.52;627435;226;62624;-76
2022/05/08 11:18:02;;;;;;;;;;;;;;;20.72;67.30;97336.66;627449;226;63163;-76
2022/05/08 11:20:36;;;;;;;;;;;;;;;20.71;65.54;97337.73;627424;226;65099;-76
2022/05/08 11:23:00;;;;;;;;;;;;;;;20.70;66.21;97330.77;627230;225;63210;-76
2022/05/08 11:25:27;;;;;;;;;;;;;;;20.71;66.96;97327.05;627409;226;65216;-76
2022/05/08 11:27:55;;;;;;;;;;;;;;;20.72;67.15;97336.66;627453;226;64889;-76
2022/05/08 11:30:33;;;;;;;;;;;;;;;20.72;66.93;97333.98;627423;226;62597;-76
2022/05/08 11:36:11;;;;;;;;;;;;;;;20.73;67.74;97332.91;627421;226;65300;-76
2022/05/08 11:38:53;;;;;;;;;;;;;;;20.71;65.91;97329.72;627237;225;65298;-76
2022/05/08 11:41:22;;;;;;;;;;;;;;;20.71;66.53;97327.05;627485;226;63285;-75
2022/05/08 11:43:51;;;;;;;;;;;;;;;20.71;66.47;97329.72;624725;226;65142;-76
2022/05/08 11:46:19;;;;;;;;;;;;;;;20.71;66.55;97327.05;624716;227;65383;-71
2022/05/08 11:48:49;;;;;;;;;;;;;;;20.70;66.79;97317.41;624725;227;63047;-72
2022/05/08 11:51:23;;;;;;;;;;;;;;;20.69;66.61;97323.82;624614;225;65792;-71
2022/05/08 11:53:49;;;;;;;;;;;;;;;20.70;66.21;97320.88;624586;225;62889;-71
2022/05/08 11:56:26;;;;;;;;;;;;;;;20.71;66.43;97316.36;624725;227;65290;-71
2022/05/08 11:58:57;;;;;;;;;;;;;;;20.69;66.34;97311.27;624722;227;65462;-72
2022/05/08 12:01:29;;;;;;;;;;;;;;;20.69;65.84;97310.47;624794;227;65265;-71
2022/05/08 12:03:57;;;;;;;;;;;;;;;20.71;67.40;97308.34;624758;227;65577;-71
2022/05/08 12:06:25;;;;;;;;;;;;;;;20.72;67.90;97312.61;624823;227;63279;-72
2022/05/08 12:08:53;;;;;;;;;;;;;;;20.71;66.61;97305.68;624800;227;62941;-71
2022/05/08 12:11:27;;;;;;;;;;;;;;;20.71;66.42;97311.02;624732;227;65108;-71
2022/05/08 12:14:05;;;;;;;;;;;;;;;20.70;67.67;97302.18;624730;227;65438;-72
2022/05/08 12:16:34;;;;;;;;;;;;;;;20.70;66.93;97296.04;624577;225;65046;-71
2022/05/08 12:19:13;;;;;;;;;;;;;;;20.70;66.63;97296.04;624774;227;65306;-72
2022/05/08 12:21:40;;;;;;;;;;;;;;;20.70;67.96;97294.17;620268;227;65570;-72
2022/05/08 12:24:09;;;;;;;;;;;;;;;20.70;67.51;97285.36;624834;227;65154;-71
2022/05/08 12:26:36;;;;;;;;;;;;;;;20.70;67.09;97282.69;624776;227;62982;-72
2022/05/08 12:29:05;;;;;;;;;;;;;;;20.69;66.83;97283.77;624761;227;63006;-72
2022/05/08 12:31:33;;;;;;;;;;;;;;;20.70;68.25;97280.02;624810;227;64782;-72
2022/05/08 12:34:00;;;;;;;;;;;;;;;20.71;67.70;97286.98;624725;227;65138;-71
2022/05/08 12:36:27;;;;;;;;;;;;;;;20.70;67.07;97280.81;624787;227;63020;-71
2022/05/08 12:38:55;;;;;;;;;;;;;;;20.69;66.50;97270.41;624763;227;63383;-71
2022/05/08 12:41:23;;;;;;;;;;;;;;;20.69;67.28;97278.42;624731;227;65359;-72
2022/05/08 12:43:50;;;;;;;;;;;;;;;20.70;67.65;97267.46;624709;227;63007;-71
2022/05/08 12:46:18;;;;;;;;;;;;;;;20.70;68.09;97266.66;624742;227;62992;-71
2022/05/08 12:48:45;;;;;;;;;;;;;;;20.71;69.03;97269.09;624735;227;64965;-71
2022/05/08 12:51:13;;;;;;;;;;;;;;;20.70;67.50;97261.33;624727;227;62815;-71
2022/05/08 12:53:42;;;;;;;;;;;;;;;20.69;67.41;97265.07;624733;227;65558;-71
2022/05/08 12:56:10;;;;;;;;;;;;;;;20.69;67.76;97263.20;624762;227;62941;-71
2022/05/08 13:01:23;;;;;;;;;;;;;;;20.71;68.17;97254.94;624758;227;65240;-71
2022/05/08 13:03:51;;;;;;;;;;;;;;;20.69;66.69;97257.86;624760;227;65389;-72
2022/05/08 13:06:18;;;;;;;;;;;;;;;20.70;67.34;97272.01;624781;227;65671;-71
2022/05/08 13:08:46;;;;;;;;;;;;;;;20.69;66.98;97259.73;624782;227;62910;-72
2022/05/08 13:11:14;;;;;;;;;;;;;;;20.68;67.21;97260.77;624743;227;65418;-72
2022/05/08 13:13:41;;;;;;;;;;;;;;;20.67;67.09;97256.51;624711;227;65482;-71
2022/05/08 13:16:14;;;;;;;;;;;;;;;20.69;67.01;97257.06;624814;227;65024;-71
2022/05/08 13:18:41;;;;;;;;;;;;;;;20.67;66.94;97251.97;624711;226;65321;-72
2022/05/08 13:21:08;;;;;;;;;;;;;;;20.67;66.92;97246.62;624767;227;65242;-71
2022/05/08 13:23:36;;;;;;;;;;;;;;;20.68;67.19;97258.11;624763;227;62968;-71
2022/05/08 13:26:03;;;;;;;;;;;;;;;20.69;68.43;97249.05;624752;227;62983;-71